Fu Ning Wan — VRDN9 — position and weather

sailwx.info

Track history (hours):
 
Tides and Currents Weather Stations Pressure Air Temp Water Temp Dewpoint Dewpoint Depression Visibility Wind Speed Wind Dir Waves Ship Positions

Fu Ning Wan

Last reported at 2016-May-22 19:14 UTC. Time now 2016-May-29 15:29 UTC.
Position N 31°04' E 122°05'.

Length 102 m; draft 5.3 m.

Type: Tanker. MMSI: 477003600.

Date/timePositionNaut miles runAvg speedWind from/ knotsBaromVisibWave heightAir tempDewpointWater temp
2016-May-22 19:14N 31°04' E 122°05'913.7
2016-May-22 18:32N 31°08' E 121°54'1312.8
2016-May-22 17:32N 31°17' E 121°44'1111.2
2016-May-22 16:33N 31°24' E 121°34'8 7.6
2016-May-22 15:33N 31°28' E 121°27'10 9.9
2016-May-22 14:33N 31°35' E 121°18'1313.2
2016-May-22 13:33N 31°44' E 121°07'1412.6
2016-May-22 12:26N 31°52' E 120°53'1112.4
2016-May-22 11:32N 32°00' E 120°44'1312.9
2016-May-22 10:33N 32°02' E 120°29'1513.7
2016-May-22 09:27N 31°56' E 120°13'1213.2
2016-May-22 08:33N 31°59' E 119°60'  
2016-May-19 18:03N 32°05' E 119°55'4 9.2
2016-May-19 17:33N 32°01' E 119°58'8 8.1
2016-May-19 16:31N 31°57' E 120°07'8 8.0
2016-May-19 15:30N 31°57' E 120°16'7 7.3
2016-May-19 14:32N 32°01' E 120°23'8 7.6
2016-May-19 13:32N 32°04' E 120°31'8 8.2
2016-May-19 12:32N 31°60' E 120°39'7 7.6
2016-May-19 11:33N 32°01' E 120°48'8 7.6
2016-May-19 10:28N 31°54' E 120°53'8 8.6
2016-May-19 09:32N 31°47' E 120°58'9 9.1
2016-May-19 08:33N 31°43' E 121°08'1010.3
2016-May-19 07:33N 31°36' E 121°17'3 3.3
2016-May-19 06:33N 31°34' E 121°20'8 7.6
2016-May-19 05:33N 31°29' E 121°27'9 8.7
2016-May-19 04:33N 31°24' E 121°34'10 9.2
2016-May-19 03:30N 31°18' E 121°44'10 9.8
2016-May-19 02:27N 31°10' E 121°52'41 4.9
2016-May-18 18:04N 31°00' E 122°38'0 0.0
2016-May-18 16:28N 31°00' E 122°38'0 0.0
2016-May-18 14:29N 31°00' E 122°38'  
2016-May-13 09:18N 35°53' E 124°30'1013.7
2016-May-13 08:33N 36°01' E 124°23'3114.2
2016-May-13 06:24N 36°26' E 124°02'1214.0
2016-May-13 05:33N 36°36' E 123°53'5513.1
2016-May-13 01:20N 37°22' E 123°15'2513.1
2016-May-12 23:24N 37°39' E 122°51'1214.6
2016-May-12 22:33N 37°45' E 122°37'1614.5
2016-May-12 21:27N 37°53' E 122°20'1414.2
2016-May-12 20:28N 38°01' E 122°05'1314.0
2016-May-12 19:30N 38°07' E 121°50'  
Track history (hours):
 
Tides and Currents Weather Stations Pressure Air Temp Water Temp Dewpoint Dewpoint Depression Visibility Wind Speed Wind Dir Waves Ship Positions

Fu Ning Wan

Last reported at 2016-May-22 19:14 UTC. Time now 2016-May-29 15:29 UTC.
Position N 31°04' E 122°05'.

Length 102 m; draft 5.3 m.

Type: Tanker. MMSI: 477003600.

Date/timePositionNaut miles runAvg speedWind from/ knotsBaromVisibWave heightAir tempDewpointWater temp
2016-May-22 19:14N 31°04' E 122°05'913.7
2016-May-22 18:32N 31°08' E 121°54'1312.8
2016-May-22 17:32N 31°17' E 121°44'1111.2
2016-May-22 16:33N 31°24' E 121°34'8 7.6
2016-May-22 15:33N 31°28' E 121°27'10 9.9
2016-May-22 14:33N 31°35' E 121°18'1313.2
2016-May-22 13:33N 31°44' E 121°07'1412.6
2016-May-22 12:26N 31°52' E 120°53'1112.4
2016-May-22 11:32N 32°00' E 120°44'1312.9
2016-May-22 10:33N 32°02' E 120°29'1513.7
2016-May-22 09:27N 31°56' E 120°13'1213.2
2016-May-22 08:33N 31°59' E 119°60'  
2016-May-19 18:03N 32°05' E 119°55'4 9.2
2016-May-19 17:33N 32°01' E 119°58'8 8.1
2016-May-19 16:31N 31°57' E 120°07'8 8.0
2016-May-19 15:30N 31°57' E 120°16'7 7.3
2016-May-19 14:32N 32°01' E 120°23'8 7.6
2016-May-19 13:32N 32°04' E 120°31'8 8.2
2016-May-19 12:32N 31°60' E 120°39'7 7.6
2016-May-19 11:33N 32°01' E 120°48'8 7.6
2016-May-19 10:28N 31°54' E 120°53'8 8.6
2016-May-19 09:32N 31°47' E 120°58'9 9.1
2016-May-19 08:33N 31°43' E 121°08'1010.3
2016-May-19 07:33N 31°36' E 121°17'3 3.3
2016-May-19 06:33N 31°34' E 121°20'8 7.6
2016-May-19 05:33N 31°29' E 121°27'9 8.7
2016-May-19 04:33N 31°24' E 121°34'10 9.2
2016-May-19 03:30N 31°18' E 121°44'10 9.8
2016-May-19 02:27N 31°10' E 121°52'41 4.9
2016-May-18 18:04N 31°00' E 122°38'0 0.0
2016-May-18 16:28N 31°00' E 122°38'0 0.0
2016-May-18 14:29N 31°00' E 122°38'  
2016-May-13 09:18N 35°53' E 124°30'1013.7
2016-May-13 08:33N 36°01' E 124°23'3114.2
2016-May-13 06:24N 36°26' E 124°02'1214.0
2016-May-13 05:33N 36°36' E 123°53'5513.1
2016-May-13 01:20N 37°22' E 123°15'2513.1
2016-May-12 23:24N 37°39' E 122°51'1214.6
2016-May-12 22:33N 37°45' E 122°37'1614.5
2016-May-12 21:27N 37°53' E 122°20'1414.2
2016-May-12 20:28N 38°01' E 122°05'1314.0
2016-May-12 19:30N 38°07' E 121°50'  

Dump ship's entire track history